Pierrepont, New York
Current Conditions -  °F | °C
As of 12:53 PM on Thursday 18 Dec 2014 (Local Time) from KMSS Reporting Station
Overcast Overcast  
Wind Chill: -6°   Ceiling: 1200
Heat Index: -1°   Visibility: 10mi
Dew Point: -3°   Wind: 9mph
Humidity: 85%   Direction: 270°W
Pressure: 29.94"   Gusts: NA
Location:  44.5792°N, 75.1592°W
Report Text: KMSS 181753Z AUTO 27008KT 10SM OVC012 M01/M03 A2994 RMK AO2 SLP145 60000 T10111033 10000 21011 58003
Loading
Personal Weather Stations






























Interactive Weather Map New forecast layout! Learn more

10-Day Weather Forecast

Advertisements
Track Severe Weather on mobile